Impacts TAF Board INFO
FOR SITUATIONAL AWARENESS. NOT TO BE USED FOR FLIGHT PLANNING PURPOSES.
IDs:

KMEM - Memphis Intl, TN, US

Issued at 1358 UTC 19 Aug 2017
Updated at 1511 UTC 19 Aug 2017
Potential Impact None Slight Moderate High
Time1454Z 19/16Z 19/17Z 19/18Z 19/19Z 19/20Z 19/21Z 19/22Z 19/23Z 20/00Z 20/01Z 20/02Z 20/03Z 20/04Z>>
Type OBS PRVL PRVL PRVL PRVL PRVL PRVL PRVL PRVL PRVL PRVL PRVL PRVL PRVL
VIS 10 >6 >6 >6 >6 >6 >6 >6 >6 >6 >6 >6 >6 >6
CIG -- -- -- -- -- -- -- -- -- -- -- -- -- --
Cover FEW SCT SCT SCT SCT SCT SCT SCT SCT SCT SKC SKC SKC SKC
FltCat VFR VFR VFR VFR VFR VFR VFR VFR VFR VFR VFR VFR VFR VFR
WX -- -- -- -- -- -- -- -- -- -- -- -- -- --
WDir 270 290 290 290 290 290 290 290 290 290 VRB VRB VRB VRB
WSpd 7 5 5 5 5 5 5 5 5 5 2 2 2 2
WGst -- -- -- -- -- -- -- -- -- -- -- -- -- --

Raw TAF
KMEM 191358Z 1914/2012 VRB03KT P6SM SKC
  FM191500 29005KT P6SM SCT040
  FM200100 VRB02KT P6SM SKC


Raw METAR
KMEM 191454Z 27007KT 10SM FEW150 29/22 A3000 RMK AO2 SLP154 T02940222 51011
KMEM 191354Z 25005KT 10SM CLR 27/22 A2999 RMK AO2 SLP152 T02720217
KMEM 191254Z 24003KT 10SM FEW150 26/23 A2998 RMK AO2 SLP149 T02610228

METAR Board
Radar Display
Forecast Discussion

FOR SITUATIONAL AWARENESS. NOT TO BE USED FOR FLIGHT PLANNING PURPOSES.